Time;durP1;ratioP1;P1;durP2;ratioP2;P2;SDS_P1;SDS_P2;PMS_P1;PMS_P2;Temp;Humidity;BMP_temperature;BMP_pressure;BME280_temperature;BME280_humidity;BME280_pressure;Samples;Min_cycle;Max_cycle;Signal;HPM_P1;HPM_P2
2023/11/03 00:00:00;;;;;;;20.02;18.83;;;;;;;;;;5064321;28;20107;-70
2023/11/03 00:02:26;;;;;;;18.63;17.63;;;;;;;;;;5063249;28;20029;-62
2023/11/03 00:04:52;;;;;;;20.38;19.10;;;;;;;;;;5063173;28;20025;-62
2023/11/03 00:07:19;;;;;;;19.90;18.80;;;;;;;;;;5061044;28;20028;-62
2023/11/03 00:09:45;;;;;;;20.65;19.25;;;;;;;;;;5068043;28;20036;-62
2023/11/03 00:12:10;;;;;;;19.85;18.58;;;;;;;;;;5066716;28;20039;-64
2023/11/03 00:14:36;;;;;;;20.27;19.17;;;;;;;;;;5061252;28;20028;-63
2023/11/03 00:17:01;;;;;;;19.05;17.95;;;;;;;;;;5062326;28;20040;-63
2023/11/03 00:19:28;;;;;;;18.25;17.25;;;;;;;;;;5063558;28;20050;-64
2023/11/03 00:21:54;;;;;;;20.17;19.08;;;;;;;;;;5064295;28;20067;-64
2023/11/03 00:24:20;;;;;;;19.98;18.88;;;;;;;;;;5066833;28;21506;-63
2023/11/03 00:26:47;;;;;;;21.55;18.77;;;;;;;;;;5066948;28;20131;-69
2023/11/03 00:29:15;;;;;;;20.88;19.77;;;;;;;;;;5069347;28;20035;-64
2023/11/03 00:31:45;;;;;;;19.45;18.38;;;;;;;;;;5068548;28;20347;-69
2023/11/03 00:34:14;;;;;;;18.85;17.75;;;;;;;;;;5065933;28;20069;-64
2023/11/03 00:36:41;;;;;;;20.20;19.00;;;;;;;;;;5070867;28;20474;-64
2023/11/03 00:39:07;;;;;;;18.50;17.50;;;;;;;;;;5066730;28;20570;-64
2023/11/03 00:41:33;;;;;;;19.92;18.73;;;;;;;;;;5072421;28;20124;-64
2023/11/03 00:43:59;;;;;;;18.02;17.02;;;;;;;;;;5055622;28;20046;-69
2023/11/03 00:46:24;;;;;;;18.48;17.48;;;;;;;;;;5066350;28;20361;-64
2023/11/03 00:48:50;;;;;;;18.42;17.42;;;;;;;;;;5066341;28;20049;-69
2023/11/03 00:51:15;;;;;;;18.65;17.65;;;;;;;;;;5068041;28;20056;-69
2023/11/03 00:53:40;;;;;;;17.80;16.80;;;;;;;;;;5067413;28;20028;-69
2023/11/03 00:56:06;;;;;;;19.02;17.80;;;;;;;;;;5068950;28;20021;-69
2023/11/03 00:58:35;;;;;;;17.52;16.55;;;;;;;;;;5064495;28;20042;-64
2023/11/03 01:01:02;;;;;;;19.23;18.13;;;;;;;;;;5065776;28;20072;-69
2023/11/03 01:03:28;;;;;;;18.75;17.75;;;;;;;;;;5064959;28;20153;-64
2023/11/03 01:05:53;;;;;;;17.75;16.65;;;;;;;;;;5065565;28;20599;-64
2023/11/03 01:08:20;;;;;;;17.98;16.98;;;;;;;;;;5065841;28;20036;-64
2023/11/03 01:10:45;;;;;;;21.10;19.67;;;;;;;;;;5068258;28;20623;-64
2023/11/03 01:13:12;;;;;;;19.80;18.67;;;;;;;;;;5064948;28;20085;-64
2023/11/03 01:15:38;;;;;;;17.10;16.13;;;;;;;;;;5067408;28;20047;-69
2023/11/03 01:18:05;;;;;;;20.27;19.17;;;;;;;;;;5065161;28;20032;-69
2023/11/03 01:20:31;;;;;;;18.63;17.63;;;;;;;;;;5066014;28;20055;-64
2023/11/03 01:22:58;;;;;;;18.85;17.55;;;;;;;;;;5067797;28;20462;-69
2023/11/03 01:25:24;;;;;;;19.42;18.23;;;;;;;;;;5066532;28;20032;-69
2023/11/03 01:27:50;;;;;;;18.27;17.27;;;;;;;;;;5067280;28;20032;-64
2023/11/03 01:30:17;;;;;;;19.50;18.40;;;;;;;;;;5066574;28;20144;-64
2023/11/03 01:32:44;;;;;;;18.42;17.42;;;;;;;;;;5068896;28;20052;-69
2023/11/03 01:35:09;;;;;;;19.13;18.02;;;;;;;;;;5066304;28;20119;-68
2023/11/03 01:37:35;;;;;;;19.13;18.05;;;;;;;;;;5064530;28;20432;-64
2023/11/03 01:40:08;;;;;;;18.02;17.02;;;;;;;;;;5068095;28;20380;-64
2023/11/03 01:42:37;;;;;;;18.98;17.92;;;;;;;;;;5065048;28;20465;-64
2023/11/03 01:45:06;;;;;;;18.85;17.75;;;;;;;;;;5064458;28;20040;-64
2023/11/03 01:47:32;;;;;;;19.35;17.55;;;;;;;;;;5067292;28;20036;-69
2023/11/03 01:49:57;;;;;;;19.38;18.30;;;;;;;;;;5065055;28;20020;-69
2023/11/03 01:52:24;;;;;;;18.52;17.42;;;;;;;;;;5063978;28;20121;-61
2023/11/03 01:54:50;;;;;;;18.83;17.80;;;;;;;;;;5067911;28;20115;-64
2023/11/03 01:57:16;;;;;;;17.52;16.52;;;;;;;;;;5062599;28;20104;-64
2023/11/03 01:59:42;;;;;;;17.15;16.20;;;;;;;;;;5065490;28;20429;-64
2023/11/03 02:02:08;;;;;;;18.13;17.13;;;;;;;;;;5062447;28;20063;-64
2023/11/03 02:04:33;;;;;;;20.05;18.95;;;;;;;;;;5069215;28;20257;-69
2023/11/03 02:06:59;;;;;;;18.50;17.20;;;;;;;;;;5065643;28;20130;-69
2023/11/03 02:09:24;;;;;;;17.20;15.93;;;;;;;;;;5067819;28;20134;-64
2023/11/03 02:11:51;;;;;;;17.92;16.83;;;;;;;;;;5067831;28;20443;-64
2023/11/03 02:14:17;;;;;;;18.35;17.35;;;;;;;;;;5062354;28;20029;-68
2023/11/03 02:16:43;;;;;;;18.65;17.25;;;;;;;;;;5068030;28;20044;-63
2023/11/03 02:19:10;;;;;;;17.27;16.27;;;;;;;;;;5062325;28;20056;-68
2023/11/03 02:21:41;;;;;;;18.45;17.45;;;;;;;;;;5064449;28;20036;-70
2023/11/03 02:24:08;;;;;;;17.65;16.65;;;;;;;;;;5065846;28;20443;-70
2023/11/03 02:26:34;;;;;;;18.10;17.10;;;;;;;;;;5061800;28;20073;-63
2023/11/03 02:29:00;;;;;;;18.05;17.05;;;;;;;;;;5066330;28;20033;-69
2023/11/03 02:31:25;;;;;;;19.92;18.83;;;;;;;;;;5063869;28;20046;-70
2023/11/03 02:33:51;;;;;;;17.58;16.58;;;;;;;;;;5066464;28;20111;-68
2023/11/03 02:36:18;;;;;;;17.48;16.48;;;;;;;;;;5068185;28;20025;-64
2023/11/03 02:38:45;;;;;;;17.73;16.65;;;;;;;;;;5066480;28;20493;-64
2023/11/03 02:41:10;;;;;;;18.23;17.23;;;;;;;;;;5064481;28;20453;-69
2023/11/03 02:43:35;;;;;;;19.25;18.05;;;;;;;;;;5066740;28;20032;-64
2023/11/03 02:46:01;;;;;;;17.73;16.73;;;;;;;;;;5066186;28;20079;-64
2023/11/03 02:48:26;;;;;;;18.38;17.30;;;;;;;;;;5064657;28;20090;-64
2023/11/03 02:50:51;;;;;;;17.92;16.92;;;;;;;;;;5065753;28;20032;-64
2023/11/03 02:53:18;;;;;;;18.83;17.67;;;;;;;;;;5064681;28;20079;-63
2023/11/03 02:55:44;;;;;;;17.30;16.30;;;;;;;;;;5064585;28;20063;-64
2023/11/03 02:58:09;;;;;;;19.05;17.55;;;;;;;;;;5067706;28;20074;-69
2023/11/03 03:00:36;;;;;;;19.05;17.42;;;;;;;;;;5064595;28;20132;-69
2023/11/03 03:03:04;;;;;;;16.65;15.75;;;;;;;;;;5065955;28;20039;-69
2023/11/03 03:05:29;;;;;;;17.55;16.55;;;;;;;;;;5062887;28;20074;-64
2023/11/03 03:07:54;;;;;;;17.30;16.33;;;;;;;;;;5069019;28;20052;-64
2023/11/03 03:10:20;;;;;;;17.90;16.80;;;;;;;;;;5061278;28;20028;-64
2023/11/03 03:12:47;;;;;;;17.60;16.60;;;;;;;;;;5067027;28;20051;-64
2023/11/03 03:15:12;;;;;;;17.02;16.02;;;;;;;;;;5064379;28;20806;-63
2023/11/03 03:17:38;;;;;;;17.65;16.55;;;;;;;;;;5063818;28;20366;-69
2023/11/03 03:20:05;;;;;;;16.88;15.77;;;;;;;;;;5064904;28;20047;-69
2023/11/03 03:22:30;;;;;;;17.95;16.95;;;;;;;;;;5061573;28;20481;-68
2023/11/03 03:24:55;;;;;;;18.52;17.42;;;;;;;;;;5065159;28;20108;-69
2023/11/03 03:27:21;;;;;;;17.73;16.73;;;;;;;;;;5063817;28;20483;-69
2023/11/03 03:29:46;;;;;;;18.55;17.15;;;;;;;;;;5065053;28;20063;-68
2023/11/03 03:32:11;;;;;;;19.10;18.08;;;;;;;;;;5062733;28;20032;-69
2023/11/03 03:34:37;;;;;;;18.88;17.77;;;;;;;;;;5065924;28;20276;-64
2023/11/03 03:37:02;;;;;;;18.13;17.13;;;;;;;;;;5063966;28;20121;-69
2023/11/03 03:39:28;;;;;;;19.48;18.38;;;;;;;;;;5065710;28;20024;-64
2023/11/03 03:41:53;;;;;;;18.10;17.10;;;;;;;;;;5063581;28;20040;-65
2023/11/03 03:44:18;;;;;;;17.65;16.65;;;;;;;;;;5068939;28;20036;-64
2023/11/03 03:46:44;;;;;;;19.45;18.38;;;;;;;;;;5064148;28;20487;-64
2023/11/03 03:49:09;;;;;;;21.15;20.02;;;;;;;;;;5066251;28;20290;-70
2023/11/03 03:51:34;;;;;;;19.20;18.15;;;;;;;;;;5065421;28;20050;-69
2023/11/03 03:54:00;;;;;;;20.42;19.33;;;;;;;;;;5066878;28;20033;-64
2023/11/03 03:56:26;;;;;;;18.58;17.58;;;;;;;;;;5061975;28;20048;-64
2023/11/03 03:58:53;;;;;;;19.42;18.38;;;;;;;;;;5065205;28;20052;-67
2023/11/03 04:01:19;;;;;;;22.00;20.80;;;;;;;;;;5066238;28;20050;-64
2023/11/03 04:03:44;;;;;;;22.20;20.90;;;;;;;;;;5066950;28;20097;-70
2023/11/03 04:06:10;;;;;;;19.88;18.77;;;;;;;;;;5064851;28;20039;-64
2023/11/03 04:08:37;;;;;;;21.08;19.88;;;;;;;;;;5065703;28;20240;-64
2023/11/03 04:11:05;;;;;;;20.77;19.58;;;;;;;;;;5063641;28;20151;-64
2023/11/03 04:13:31;;;;;;;20.63;19.42;;;;;;;;;;5064409;28;20032;-69
2023/11/03 04:15:57;;;;;;;21.70;20.50;;;;;;;;;;5065293;28;20036;-64
2023/11/03 04:18:22;;;;;;;20.98;19.88;;;;;;;;;;5063776;28;20032;-69
2023/11/03 04:20:48;;;;;;;21.33;20.13;;;;;;;;;;5062444;28;20029;-63
2023/11/03 04:23:13;;;;;;;20.42;19.33;;;;;;;;;;5065111;28;20131;-64
2023/11/03 04:25:39;;;;;;;21.17;20.02;;;;;;;;;;5062614;28;20040;-64
2023/11/03 04:28:06;;;;;;;20.23;19.13;;;;;;;;;;5063940;28;20033;-70
2023/11/03 04:30:35;;;;;;;20.40;19.30;;;;;;;;;;5061247;28;20033;-70
2023/11/03 04:33:04;;;;;;;21.38;20.20;;;;;;;;;;5066469;28;20130;-64
2023/11/03 04:35:30;;;;;;;20.88;19.58;;;;;;;;;;5061740;28;20035;-66
2023/11/03 04:37:55;;;;;;;23.13;21.73;;;;;;;;;;5065573;28;20040;-69
2023/11/03 04:40:21;;;;;;;23.23;21.92;;;;;;;;;;5060988;28;20310;-71
2023/11/03 04:42:50;;;;;;;21.00;19.88;;;;;;;;;;5063155;28;20059;-71
2023/11/03 04:45:20;;;;;;;21.27;20.13;;;;;;;;;;5065076;28;20878;-70
2023/11/03 04:47:45;;;;;;;23.40;21.53;;;;;;;;;;5064091;28;20339;-71
2023/11/03 04:50:11;;;;;;;23.13;21.55;;;;;;;;;;5064344;28;20520;-69
2023/11/03 04:52:39;;;;;;;21.67;20.48;;;;;;;;;;5060634;28;20449;-64
2023/11/03 04:55:09;;;;;;;22.30;21.10;;;;;;;;;;5062779;28;20413;-70
2023/11/03 04:57:35;;;;;;;22.00;20.80;;;;;;;;;;5061631;28;20031;-70
2023/11/03 05:00:02;;;;;;;21.92;20.73;;;;;;;;;;5063124;28;20482;-70
2023/11/03 05:02:28;;;;;;;22.00;20.80;;;;;;;;;;5062578;28;20692;-69
2023/11/03 05:04:54;;;;;;;21.23;20.13;;;;;;;;;;5064569;28;20052;-70
2023/11/03 05:07:20;;;;;;;22.13;20.85;;;;;;;;;;5065716;28;20758;-70
2023/11/03 05:09:46;;;;;;;23.02;21.83;;;;;;;;;;5067813;28;20273;-70
2023/11/03 05:12:12;;;;;;;26.30;24.25;;;;;;;;;;5069341;28;20285;-64
2023/11/03 05:14:38;;;;;;;22.67;21.48;;;;;;;;;;5065903;28;20021;-64
2023/11/03 05:17:05;;;;;;;22.75;21.55;;;;;;;;;;5067564;28;20043;-64
2023/11/03 05:19:30;;;;;;;24.52;23.13;;;;;;;;;;5065145;28;20029;-64
2023/11/03 05:21:55;;;;;;;23.42;22.13;;;;;;;;;;5068234;28;20043;-71
2023/11/03 05:24:21;;;;;;;23.60;22.30;;;;;;;;;;5067817;28;20111;-71
2023/11/03 05:26:47;;;;;;;23.52;22.23;;;;;;;;;;5068424;28;20028;-71
2023/11/03 05:29:14;;;;;;;22.45;21.25;;;;;;;;;;5072377;28;20036;-71
2023/11/03 05:31:39;;;;;;;24.73;23.42;;;;;;;;;;5067143;28;20434;-64
2023/11/03 05:34:05;;;;;;;26.05;23.95;;;;;;;;;;5069467;28;20040;-64
2023/11/03 05:36:30;;;;;;;25.77;23.83;;;;;;;;;;5062410;28;20054;-64
2023/11/03 05:38:56;;;;;;;24.42;23.13;;;;;;;;;;5069650;28;20032;-64
2023/11/03 05:41:21;;;;;;;23.33;22.13;;;;;;;;;;5066269;28;20035;-64
2023/11/03 05:43:47;;;;;;;23.63;22.33;;;;;;;;;;5065964;28;20032;-70
2023/11/03 05:46:12;;;;;;;22.95;21.75;;;;;;;;;;5064965;28;20893;-70
2023/11/03 05:48:37;;;;;;;24.48;22.98;;;;;;;;;;5065220;28;20135;-70
2023/11/03 05:51:04;;;;;;;22.17;20.98;;;;;;;;;;5065074;28;20040;-70
2023/11/03 05:53:30;;;;;;;23.98;22.67;;;;;;;;;;5067695;28;20028;-70
2023/11/03 05:55:56;;;;;;;22.38;21.17;;;;;;;;;;5065973;28;20657;-70
2023/11/03 05:58:21;;;;;;;23.58;22.27;;;;;;;;;;5068226;28;20036;-64
2023/11/03 06:00:47;;;;;;;22.55;21.35;;;;;;;;;;5068675;28;20658;-64
2023/11/03 06:03:13;;;;;;;21.88;20.67;;;;;;;;;;5065294;28;20036;-68
2023/11/03 06:05:38;;;;;;;24.00;22.70;;;;;;;;;;5066423;28;20041;-69
2023/11/03 06:08:04;;;;;;;24.52;23.23;;;;;;;;;;5065455;28;20044;-63
2023/11/03 06:10:30;;;;;;;21.67;20.48;;;;;;;;;;5071104;28;20101;-71
2023/11/03 06:12:55;;;;;;;22.55;21.35;;;;;;;;;;5068030;28;20036;-63
2023/11/03 06:15:21;;;;;;;23.83;22.55;;;;;;;;;;5064145;28;20415;-69
2023/11/03 06:17:46;;;;;;;23.58;22.27;;;;;;;;;;5065190;28;20111;-69
2023/11/03 06:20:11;;;;;;;24.15;22.85;;;;;;;;;;5065841;28;20021;-69
2023/11/03 06:22:37;;;;;;;25.27;23.90;;;;;;;;;;5064439;28;20048;-70
2023/11/03 06:25:03;;;;;;;24.67;23.38;;;;;;;;;;5065560;28;20028;-64
2023/11/03 06:27:29;;;;;;;23.27;22.02;;;;;;;;;;5067417;28;20044;-68
2023/11/03 06:29:54;;;;;;;23.70;22.42;;;;;;;;;;5066181;28;20094;-63
2023/11/03 06:32:20;;;;;;;22.55;21.35;;;;;;;;;;5067529;28;20032;-63
2023/11/03 06:34:45;;;;;;;25.08;23.35;;;;;;;;;;5067264;28;20036;-69
2023/11/03 06:37:11;;;;;;;23.70;22.40;;;;;;;;;;5068563;28;20032;-70
2023/11/03 06:39:37;;;;;;;23.52;22.27;;;;;;;;;;5068555;28;20059;-64
2023/11/03 06:42:05;;;;;;;23.80;22.50;;;;;;;;;;5070447;28;20031;-69
2023/11/03 06:44:31;;;;;;;23.52;22.02;;;;;;;;;;5070423;28;20063;-64
2023/11/03 06:46:56;;;;;;;24.80;23.50;;;;;;;;;;5064159;28;20082;-64
2023/11/03 06:49:22;;;;;;;23.08;21.83;;;;;;;;;;5065367;28;20148;-62
2023/11/03 06:51:47;;;;;;;22.52;21.33;;;;;;;;;;5065578;28;20040;-62
2023/11/03 06:54:13;;;;;;;23.83;22.52;;;;;;;;;;5066189;28;20031;-63
2023/11/03 06:56:39;;;;;;;24.45;23.05;;;;;;;;;;5067939;28;20029;-63
2023/11/03 06:59:06;;;;;;;22.98;21.77;;;;;;;;;;5067176;28;20476;-69
2023/11/03 07:01:33;;;;;;;23.75;22.45;;;;;;;;;;5062025;28;20166;-63
2023/11/03 07:04:00;;;;;;;22.83;21.60;;;;;;;;;;5066616;28;20044;-63
2023/11/03 07:06:25;;;;;;;23.40;22.10;;;;;;;;;;5063745;28;20032;-68
2023/11/03 07:08:50;;;;;;;23.80;22.50;;;;;;;;;;5068246;28;20039;-68
2023/11/03 07:11:16;;;;;;;24.25;22.85;;;;;;;;;;5063639;28;20035;-68
2023/11/03 07:13:43;;;;;;;23.80;22.17;;;;;;;;;;5066619;28;20093;-62
2023/11/03 07:16:12;;;;;;;25.63;24.23;;;;;;;;;;5068273;28;20495;-68
2023/11/03 07:18:38;;;;;;;23.73;22.48;;;;;;;;;;5064690;28;20039;-68
2023/11/03 07:21:12;;;;;;;25.45;24.10;;;;;;;;;;5063545;28;20446;-68
2023/11/03 07:23:38;;;;;;;23.55;22.20;;;;;;;;;;5067778;28;20025;-62
2023/11/03 07:26:04;;;;;;;24.67;23.35;;;;;;;;;;5063856;28;20635;-63
2023/11/03 07:28:32;;;;;;;24.55;23.25;;;;;;;;;;5061025;28;20033;-63
2023/11/03 07:30:58;;;;;;;25.27;23.98;;;;;;;;;;5064442;28;20120;-63
2023/11/03 07:33:23;;;;;;;25.33;24.02;;;;;;;;;;5063980;28;20220;-63
2023/11/03 07:35:49;;;;;;;26.45;24.95;;;;;;;;;;5062584;28;20055;-63
2023/11/03 07:38:14;;;;;;;26.55;25.15;;;;;;;;;;5067368;28;20048;-63
2023/11/03 07:40:40;;;;;;;25.58;24.20;;;;;;;;;;5064112;28;20037;-64
2023/11/03 07:43:08;;;;;;;24.80;23.25;;;;;;;;;;5062212;28;20039;-64
2023/11/03 07:45:34;;;;;;;26.27;24.88;;;;;;;;;;5070911;28;20025;-64
2023/11/03 07:48:01;;;;;;;25.58;24.20;;;;;;;;;;5061680;28;20065;-63
2023/11/03 07:50:26;;;;;;;25.20;23.88;;;;;;;;;;5065064;28;20082;-63
2023/11/03 07:52:52;;;;;;;29.25;27.73;;;;;;;;;;5062793;28;20654;-63
2023/11/03 07:55:18;;;;;;;26.63;25.23;;;;;;;;;;5063727;28;20176;-62
2023/11/03 07:57:44;;;;;;;29.50;25.33;;;;;;;;;;5063151;28;20419;-63
2023/11/03 08:00:12;;;;;;;25.92;24.52;;;;;;;;;;5065283;28;20060;-63
2023/11/03 08:02:38;;;;;;;25.88;24.48;;;;;;;;;;5064612;28;20036;-63
2023/11/03 08:05:09;;;;;;;26.30;24.92;;;;;;;;;;5060963;28;20024;-69
2023/11/03 08:07:35;;;;;;;27.88;25.75;;;;;;;;;;5061424;28;20098;-63
2023/11/03 08:10:03;;;;;;;27.67;26.20;;;;;;;;;;5062077;28;20481;-63
2023/11/03 08:12:30;;;;;;;25.58;24.23;;;;;;;;;;5064872;28;20033;-63
2023/11/03 08:14:56;;;;;;;29.30;27.80;;;;;;;;;;5062629;28;20546;-70
2023/11/03 08:17:22;;;;;;;25.52;24.17;;;;;;;;;;5064214;28;20048;-69
2023/11/03 08:19:47;;;;;;;28.60;27.10;;;;;;;;;;5063517;28;20040;-69
2023/11/03 08:22:16;;;;;;;26.20;24.80;;;;;;;;;;5060670;28;20500;-62
2023/11/03 08:24:41;;;;;;;26.52;25.15;;;;;;;;;;5063861;28;20070;-69
2023/11/03 08:27:06;;;;;;;31.63;30.00;;;;;;;;;;5061572;28;20514;-69
2023/11/03 08:29:32;;;;;;;27.00;25.30;;;;;;;;;;5063371;28;20037;-62
2023/11/03 08:31:58;;;;;;;29.25;27.65;;;;;;;;;;5064363;28;20055;-62
2023/11/03 08:34:24;;;;;;;26.38;25.00;;;;;;;;;;5062208;28;20060;-68
2023/11/03 08:36:49;;;;;;;28.05;26.52;;;;;;;;;;5062709;28;20085;-62
2023/11/03 08:39:15;;;;;;;28.35;26.88;;;;;;;;;;5064521;28;20102;-68
2023/11/03 08:41:41;;;;;;;27.75;26.30;;;;;;;;;;5065728;28;20644;-62
2023/11/03 08:44:08;;;;;;;28.13;26.65;;;;;;;;;;5066373;28;20445;-68
2023/11/03 08:46:34;;;;;;;28.67;27.17;;;;;;;;;;5070101;28;20113;-62
2023/11/03 08:48:59;;;;;;;28.65;27.15;;;;;;;;;;5064627;28;20036;-62
2023/11/03 08:51:26;;;;;;;31.45;29.77;;;;;;;;;;5067456;28;20020;-62
2023/11/03 08:53:53;;;;;;;29.95;28.35;;;;;;;;;;5066380;28;20103;-68
2023/11/03 08:56:20;;;;;;;33.88;32.15;;;;;;;;;;5067089;28;20111;-63
2023/11/03 08:58:46;;;;;;;32.60;30.90;;;;;;;;;;5071161;28;20159;-67
2023/11/03 09:01:11;;;;;;;33.47;31.67;;;;;;;;;;5068764;28;20115;-68
2023/11/03 09:03:37;;;;;;;33.28;31.58;;;;;;;;;;5072267;28;20063;-62
2023/11/03 09:06:05;;;;;;;35.08;33.28;;;;;;;;;;5064992;28;20037;-62
2023/11/03 09:08:31;;;;;;;31.17;29.48;;;;;;;;;;5067803;28;20115;-69
2023/11/03 09:10:56;;;;;;;33.30;31.33;;;;;;;;;;5071199;28;20104;-69
2023/11/03 09:13:21;;;;;;;36.13;34.22;;;;;;;;;;5067628;28;20536;-70
2023/11/03 09:15:48;;;;;;;28.10;26.60;;;;;;;;;;5070701;28;20130;-62
2023/11/03 09:18:14;;;;;;;27.95;26.45;;;;;;;;;;5064508;28;20036;-67
2023/11/03 09:20:40;;;;;;;28.55;26.70;;;;;;;;;;5068191;28;20024;-69
2023/11/03 09:23:05;;;;;;;27.10;25.70;;;;;;;;;;5070523;28;20036;-69
2023/11/03 09:25:30;;;;;;;27.30;25.85;;;;;;;;;;5063829;28;20043;-62
2023/11/03 09:27:56;;;;;;;25.85;24.45;;;;;;;;;;5068372;28;20103;-64
2023/11/03 09:30:22;;;;;;;28.67;27.17;;;;;;;;;;5067092;28;20567;-62
2023/11/03 09:32:48;;;;;;;27.33;25.83;;;;;;;;;;5072041;28;20064;-62
2023/11/03 09:35:14;;;;;;;25.75;24.00;;;;;;;;;;5067119;28;20381;-62
2023/11/03 09:37:40;;;;;;;27.50;25.90;;;;;;;;;;5069335;28;20036;-67
2023/11/03 09:40:06;;;;;;;26.15;24.75;;;;;;;;;;5069648;28;20114;-68
2023/11/03 09:42:32;;;;;;;25.42;24.13;;;;;;;;;;5066056;28;20105;-68
2023/11/03 09:44:58;;;;;;;26.30;24.63;;;;;;;;;;5062876;28;20040;-68
2023/11/03 09:47:27;;;;;;;26.05;24.65;;;;;;;;;;5068758;28;20472;-68
2023/11/03 09:49:58;;;;;;;25.90;24.50;;;;;;;;;;5064255;28;20028;-63
2023/11/03 09:52:24;;;;;;;26.38;24.98;;;;;;;;;;5063284;28;20072;-68
2023/11/03 09:54:50;;;;;;;24.67;23.27;;;;;;;;;;5065634;28;20032;-67
2023/11/03 09:57:16;;;;;;;23.25;21.83;;;;;;;;;;5066026;28;20185;-68
2023/11/03 09:59:42;;;;;;;23.20;22.00;;;;;;;;;;5065831;28;20098;-67
2023/11/03 10:02:19;;;;;;;22.90;21.70;;;;;;;;;;5067026;28;20039;-62
2023/11/03 10:04:45;;;;;;;21.42;20.23;;;;;;;;;;5070257;28;20039;-70
2023/11/03 10:07:12;;;;;;;20.77;19.67;;;;;;;;;;5066705;28;20066;-67
2023/11/03 10:09:42;;;;;;;22.38;21.15;;;;;;;;;;5066818;28;20032;-68
2023/11/03 10:12:10;;;;;;;20.70;19.60;;;;;;;;;;5065584;28;20043;-63
2023/11/03 10:14:39;;;;;;;21.67;20.48;;;;;;;;;;5067187;28;20323;-67
2023/11/03 10:17:04;;;;;;;22.55;21.23;;;;;;;;;;5064144;28;20354;-67
2023/11/03 10:19:30;;;;;;;23.00;21.48;;;;;;;;;;5065076;28;20106;-62
2023/11/03 10:21:57;;;;;;;20.63;19.48;;;;;;;;;;5067688;28;20051;-62
2023/11/03 10:24:23;;;;;;;20.92;19.83;;;;;;;;;;5062662;28;20067;-62
2023/11/03 10:26:50;;;;;;;22.92;21.60;;;;;;;;;;5066445;28;20029;-67
2023/11/03 10:29:16;;;;;;;21.60;20.38;;;;;;;;;;5064336;28;20064;-67
2023/11/03 10:31:47;;;;;;;21.85;20.45;;;;;;;;;;5065654;28;20678;-67
2023/11/03 10:34:14;;;;;;;21.85;20.65;;;;;;;;;;5068259;28;20458;-63
2023/11/03 10:36:41;;;;;;;22.35;21.15;;;;;;;;;;5062619;28;20790;-68
2023/11/03 10:39:06;;;;;;;20.95;19.85;;;;;;;;;;5064521;28;20463;-68
2023/11/03 10:41:33;;;;;;;20.30;19.20;;;;;;;;;;5064884;28;20369;-68
2023/11/03 10:43:58;;;;;;;21.35;20.15;;;;;;;;;;5066265;28;20059;-67
2023/11/03 10:46:39;;;;;;;20.75;19.65;;;;;;;;;;5066385;28;20512;-67
2023/11/03 10:49:30;;;;;;;21.15;20.05;;;;;;;;;;5062821;28;20080;-68
2023/11/03 10:52:13;;;;;;;19.63;18.52;;;;;;;;;;5066850;28;20615;-62
2023/11/03 10:54:53;;;;;;;19.02;18.02;;;;;;;;;;5065319;28;20036;-68
2023/11/03 10:57:19;;;;;;;21.75;20.55;;;;;;;;;;5066807;28;20272;-67
2023/11/03 10:59:52;;;;;;;20.23;19.02;;;;;;;;;;5065679;28;20036;-68
2023/11/03 11:02:31;;;;;;;20.40;19.30;;;;;;;;;;5066575;28;20028;-67
2023/11/03 11:05:06;;;;;;;20.52;19.15;;;;;;;;;;5064064;28;20025;-68
2023/11/03 11:07:34;;;;;;;19.55;18.45;;;;;;;;;;5065211;28;20540;-68
2023/11/03 11:10:00;;;;;;;21.27;19.88;;;;;;;;;;5064487;28;20108;-67
2023/11/03 11:12:48;;;;;;;21.95;20.65;;;;;;;;;;5061595;28;20105;-63
2023/11/03 11:15:19;;;;;;;19.42;18.33;;;;;;;;;;5063343;28;20139;-62
2023/11/03 11:17:46;;;;;;;20.45;19.35;;;;;;;;;;5063765;28;20055;-63
2023/11/03 11:20:16;;;;;;;21.02;19.92;;;;;;;;;;5064473;28;20107;-63
2023/11/03 11:22:45;;;;;;;19.98;18.88;;;;;;;;;;5064283;28;20029;-63
2023/11/03 11:25:11;;;;;;;21.23;20.00;;;;;;;;;;5064787;28;20047;-63
2023/11/03 11:27:39;;;;;;;21.10;19.92;;;;;;;;;;5064512;28;20420;-63
2023/11/03 11:30:16;;;;;;;22.45;21.25;;;;;;;;;;5064481;28;20043;-63
2023/11/03 11:32:59;;;;;;;19.05;17.95;;;;;;;;;;5063300;28;20066;-63
2023/11/03 11:35:25;;;;;;;18.88;17.67;;;;;;;;;;5066356;28;20204;-63
2023/11/03 11:37:50;;;;;;;18.98;17.92;;;;;;;;;;5062782;28;20047;-67
2023/11/03 11:40:18;;;;;;;21.60;20.30;;;;;;;;;;5066036;28;20039;-63
2023/11/03 11:42:44;;;;;;;20.83;19.70;;;;;;;;;;5056046;28;20041;-62
2023/11/03 11:45:14;;;;;;;18.75;17.55;;;;;;;;;;5063782;28;20039;-62
2023/11/03 11:47:47;;;;;;;17.90;16.90;;;;;;;;;;5064568;28;20513;-68
2023/11/03 11:50:17;;;;;;;17.15;16.15;;;;;;;;;;5063376;28;20029;-67
2023/11/03 11:52:49;;;;;;;17.35;16.35;;;;;;;;;;5063505;28;20032;-67
2023/11/03 11:55:15;;;;;;;17.95;16.95;;;;;;;;;;5060010;28;20040;-68
2023/11/03 11:57:43;;;;;;;18.27;17.27;;;;;;;;;;5063148;28;20471;-63
2023/11/03 12:00:12;;;;;;;16.92;16.02;;;;;;;;;;5064357;28;20400;-63
2023/11/03 12:02:39;;;;;;;20.48;19.15;;;;;;;;;;5060834;28;20051;-68
2023/11/03 12:05:05;;;;;;;18.17;17.00;;;;;;;;;;5063621;28;20459;-68
2023/11/03 12:07:30;;;;;;;17.73;16.73;;;;;;;;;;5065415;28;20033;-68
2023/11/03 12:09:56;;;;;;;18.85;17.70;;;;;;;;;;5064208;28;20055;-68
2023/11/03 12:12:23;;;;;;;16.75;15.75;;;;;;;;;;5060822;28;20036;-64
2023/11/03 12:14:49;;;;;;;17.55;16.55;;;;;;;;;;5064888;28;20148;-62
2023/11/03 12:17:15;;;;;;;16.30;15.32;;;;;;;;;;5060425;28;20581;-63
2023/11/03 12:19:42;;;;;;;17.77;16.67;;;;;;;;;;5062005;28;20047;-63
2023/11/03 12:22:07;;;;;;;18.90;17.48;;;;;;;;;;5058229;28;20244;-63
2023/11/03 12:24:33;;;;;;;19.00;17.92;;;;;;;;;;5061829;28;20711;-63
2023/11/03 12:26:59;;;;;;;17.63;16.63;;;;;;;;;;5063988;28;20024;-63
2023/11/03 12:29:29;;;;;;;17.13;16.23;;;;;;;;;;5058610;28;20085;-63
2023/11/03 12:32:04;;;;;;;16.02;15.13;;;;;;;;;;5064952;28;20037;-63
2023/11/03 12:34:31;;;;;;;16.23;15.32;;;;;;;;;;5059529;28;20024;-63
2023/11/03 12:36:57;;;;;;;19.00;17.90;;;;;;;;;;5061829;28;20173;-62
2023/11/03 12:39:23;;;;;;;17.85;16.85;;;;;;;;;;5061654;28;20048;-68
2023/11/03 12:42:09;;;;;;;18.20;17.20;;;;;;;;;;5064335;28;20032;-68
2023/11/03 12:44:59;;;;;;;17.30;16.30;;;;;;;;;;5063456;28;20120;-68
2023/11/03 12:47:44;;;;;;;17.40;16.40;;;;;;;;;;5060785;28;20094;-62
2023/11/03 12:50:13;;;;;;;17.83;16.73;;;;;;;;;;5064422;28;20039;-62
2023/11/03 12:52:39;;;;;;;17.23;16.02;;;;;;;;;;5066264;28;20148;-68
2023/11/03 12:55:05;;;;;;;17.30;16.30;;;;;;;;;;5062371;28;20100;-68
2023/11/03 12:57:35;;;;;;;18.38;17.17;;;;;;;;;;5061515;28;21165;-64
2023/11/03 13:00:00;;;;;;;17.10;16.10;;;;;;;;;;5060763;28;20040;-70
2023/11/03 13:02:26;;;;;;;17.90;16.90;;;;;;;;;;5060576;28;20044;-70
2023/11/03 13:04:52;;;;;;;17.40;16.40;;;;;;;;;;5063671;28;20040;-64
2023/11/03 13:07:17;;;;;;;17.90;16.90;;;;;;;;;;5063289;28;20119;-70
2023/11/03 13:09:43;;;;;;;16.52;15.63;;;;;;;;;;5063555;28;20039;-62
2023/11/03 13:12:10;;;;;;;18.58;17.38;;;;;;;;;;5060866;28;20355;-62
2023/11/03 13:14:35;;;;;;;18.27;17.17;;;;;;;;;;5061037;28;20492;-64
2023/11/03 13:17:01;;;;;;;18.02;17.02;;;;;;;;;;5063130;28;20104;-64
2023/11/03 13:19:27;;;;;;;18.38;17.38;;;;;;;;;;5061331;28;20021;-64
2023/11/03 13:21:54;;;;;;;18.60;17.60;;;;;;;;;;5063297;28;20036;-69
2023/11/03 13:24:19;;;;;;;18.58;17.58;;;;;;;;;;5063970;28;20040;-64
2023/11/03 13:26:45;;;;;;;20.08;18.98;;;;;;;;;;5062923;28;20043;-63
2023/11/03 13:29:10;;;;;;;20.13;18.92;;;;;;;;;;5066463;28;20045;-63
2023/11/03 13:31:35;;;;;;;17.92;16.92;;;;;;;;;;5064625;28;20093;-63
2023/11/03 13:34:02;;;;;;;19.20;18.10;;;;;;;;;;5068554;28;20478;-69
2023/11/03 13:36:28;;;;;;;18.35;17.35;;;;;;;;;;5069157;28;20032;-69
2023/11/03 13:38:54;;;;;;;18.60;17.60;;;;;;;;;;5068461;28;20036;-64
2023/11/03 13:41:20;;;;;;;19.35;18.10;;;;;;;;;;5068120;28;20038;-69
2023/11/03 13:43:45;;;;;;;19.30;18.23;;;;;;;;;;5063323;28;20119;-69
2023/11/03 13:46:14;;;;;;;19.50;18.38;;;;;;;;;;5064377;28;20044;-69
2023/11/03 13:48:40;;;;;;;20.42;18.58;;;;;;;;;;5068707;28;20056;-69
2023/11/03 13:51:07;;;;;;;19.17;18.08;;;;;;;;;;5068946;28;20046;-69
2023/11/03 13:53:32;;;;;;;18.92;17.90;;;;;;;;;;5064130;28;20268;-62
2023/11/03 13:55:58;;;;;;;21.92;20.70;;;;;;;;;;5066330;28;20410;-70
2023/11/03 13:58:25;;;;;;;17.60;16.60;;;;;;;;;;5067944;28;20457;-70
2023/11/03 14:00:51;;;;;;;17.08;16.17;;;;;;;;;;5064205;28;20037;-63
2023/11/03 14:03:16;;;;;;;19.17;18.08;;;;;;;;;;5066503;28;20040;-70
2023/11/03 14:05:41;;;;;;;20.33;19.23;;;;;;;;;;5069180;28;20094;-70
2023/11/03 14:08:08;;;;;;;19.40;18.30;;;;;;;;;;5067757;28;20039;-70
2023/11/03 14:10:34;;;;;;;19.48;18.38;;;;;;;;;;5064853;28;20373;-63
2023/11/03 14:13:01;;;;;;;18.98;17.35;;;;;;;;;;5067917;28;20102;-65